createdAt,value
2023-01-29T00:02:12.135Z,15.70
2023-01-29T00:04:38.698Z,16.30
2023-01-29T00:07:05.194Z,17.20
2023-01-29T00:09:31.657Z,17.50
2023-01-29T00:11:58.214Z,16.37
2023-01-29T00:14:26.468Z,16.40
2023-01-29T00:16:53.608Z,18.67
2023-01-29T00:19:20.218Z,19.30
2023-01-29T00:21:46.797Z,18.57
2023-01-29T00:24:13.328Z,16.47
2023-01-29T00:26:39.794Z,14.83
2023-01-29T00:29:06.458Z,16.53
2023-01-29T00:31:33.086Z,16.30
2023-01-29T00:33:59.610Z,16.03
2023-01-29T00:36:26.901Z,16.00
2023-01-29T00:39:02.922Z,15.53
2023-01-29T00:41:51.140Z,17.10
2023-01-29T00:44:37.301Z,16.93
2023-01-29T00:47:29.867Z,17.70
2023-01-29T00:49:57.227Z,19.47
2023-01-29T00:52:24.006Z,18.33
2023-01-29T00:54:56.395Z,17.80
2023-01-29T00:57:26.165Z,17.20
2023-01-29T00:59:52.699Z,17.70
2023-01-29T01:02:38.055Z,18.07
2023-01-29T01:05:06.994Z,16.57
2023-01-29T01:07:33.837Z,15.60
2023-01-29T01:10:18.934Z,16.37
2023-01-29T01:12:45.679Z,16.63
2023-01-29T01:15:12.261Z,17.23
2023-01-29T01:17:38.744Z,18.40
2023-01-29T01:20:05.977Z,20.73
2023-01-29T01:22:32.426Z,18.70
2023-01-29T01:24:58.880Z,21.67
2023-01-29T01:27:25.382Z,22.57
2023-01-29T01:29:51.886Z,23.30
2023-01-29T01:32:18.383Z,24.80
2023-01-29T01:34:44.910Z,23.73
2023-01-29T01:37:11.473Z,21.47
2023-01-29T01:39:37.944Z,21.50
2023-01-29T01:42:11.707Z,21.67
2023-01-29T01:47:02.617Z,20.50
2023-01-29T01:49:29.220Z,18.63
2023-01-29T01:51:55.663Z,19.87
2023-01-29T01:54:28.310Z,21.93
2023-01-29T01:57:08.979Z,19.87
2023-01-29T01:59:42.381Z,22.67
2023-01-29T02:02:27.565Z,20.83
2023-01-29T02:05:12.280Z,20.33
2023-01-29T02:08:05.175Z,20.43
2023-01-29T02:10:53.114Z,21.40
2023-01-29T02:13:19.733Z,22.60
2023-01-29T02:15:47.914Z,21.57
2023-01-29T02:18:18.476Z,22.57
2023-01-29T02:22:25.014Z,23.20
2023-01-29T02:28:25.011Z,22.40
2023-01-29T02:37:00.859Z,20.57
2023-01-29T02:39:56.502Z,19.60
2023-01-29T02:43:04.749Z,21.53
2023-01-29T02:47:30.486Z,22.00
2023-01-29T02:50:25.956Z,21.60
2023-01-29T02:53:43.297Z,22.63
2023-01-29T02:56:18.624Z,20.70
2023-01-29T02:59:19.894Z,22.03
2023-01-29T03:01:57.900Z,19.53
2023-01-29T03:04:35.802Z,21.40
2023-01-29T03:07:42.062Z,20.53
2023-01-29T03:10:36.480Z,20.37
2023-01-29T03:13:29.727Z,18.77
2023-01-29T03:16:15.655Z,20.97
2023-01-29T03:18:50.915Z,19.53
2023-01-29T03:21:50.432Z,19.10
2023-01-29T03:24:59.411Z,20.63
2023-01-29T03:28:00.802Z,19.53
2023-01-29T03:30:50.306Z,20.37
2023-01-29T03:33:20.618Z,20.23
2023-01-29T03:36:08.176Z,18.73
2023-01-29T03:38:34.749Z,19.70
2023-01-29T03:41:34.109Z,20.03
2023-01-29T03:44:18.570Z,18.37
2023-01-29T03:48:37.638Z,17.97
2023-01-29T03:52:20.647Z,17.80
2023-01-29T03:56:44.972Z,18.70
2023-01-29T04:01:48.193Z,17.47
2023-01-29T04:04:41.459Z,17.10
2023-01-29T04:07:23.723Z,17.60
2023-01-29T04:10:08.512Z,17.73
2023-01-29T04:12:47.742Z,17.20
2023-01-29T04:15:16.346Z,18.67
2023-01-29T04:17:52.361Z,17.60
2023-01-29T04:20:20.965Z,19.33
2023-01-29T04:22:51.603Z,17.97
2023-01-29T04:25:28.110Z,18.17
2023-01-29T04:28:53.328Z,16.57
2023-01-29T04:31:28.443Z,17.83
2023-01-29T04:37:15.556Z,15.13
2023-01-29T04:40:54.280Z,14.47
2023-01-29T04:43:33.294Z,13.53
2023-01-29T04:46:27.304Z,14.67
2023-01-29T04:50:46.663Z,14.40
2023-01-29T04:53:23.034Z,11.67
2023-01-29T04:56:29.481Z,11.37
2023-01-29T04:59:06.869Z,13.03
2023-01-29T05:01:35.934Z,13.30
2023-01-29T05:04:10.283Z,10.50
2023-01-29T05:06:38.704Z,11.57
2023-01-29T05:09:06.960Z,10.70
2023-01-29T05:11:36.278Z,10.00
2023-01-29T05:14:09.177Z,10.03
2023-01-29T05:16:47.142Z,10.87
2023-01-29T05:19:16.265Z,10.73
2023-01-29T05:21:47.408Z,11.33
2023-01-29T05:24:24.097Z,10.87
2023-01-29T05:27:12.131Z,11.33
2023-01-29T05:29:46.665Z,9.63
2023-01-29T05:32:15.038Z,9.63
2023-01-29T05:34:41.584Z,11.00
2023-01-29T05:37:09.719Z,9.13
2023-01-29T05:39:36.189Z,8.87
2023-01-29T05:42:02.940Z,10.70
2023-01-29T05:44:29.411Z,9.47
2023-01-29T05:46:55.908Z,9.07
2023-01-29T05:49:22.528Z,9.97
2023-01-29T05:51:49.046Z,8.57
2023-01-29T05:54:15.511Z,8.33
2023-01-29T05:56:42.004Z,6.10
2023-01-29T05:59:08.462Z,6.57
2023-01-29T06:01:34.953Z,6.03
2023-01-29T06:04:01.427Z,6.83
2023-01-29T06:06:27.874Z,6.30
2023-01-29T06:08:55.259Z,6.20
2023-01-29T06:11:21.957Z,6.07
2023-01-29T06:13:48.686Z,5.30
2023-01-29T06:16:15.968Z,6.30
2023-01-29T06:18:42.751Z,6.13
2023-01-29T06:21:12.836Z,5.70
2023-01-29T06:23:40.193Z,5.73
2023-01-29T06:26:13.668Z,5.87
2023-01-29T06:28:40.768Z,5.63
2023-01-29T06:31:26.536Z,5.90
2023-01-29T06:33:58.231Z,6.30
2023-01-29T06:36:24.709Z,5.77
2023-01-29T06:38:51.166Z,5.47
2023-01-29T06:41:21.979Z,6.27
2023-01-29T06:43:48.463Z,5.97
2023-01-29T06:46:14.966Z,5.87
2023-01-29T06:48:41.448Z,6.07
2023-01-29T06:51:10.171Z,5.03
2023-01-29T06:53:38.534Z,5.40
2023-01-29T06:56:06.277Z,5.17
2023-01-29T06:58:32.989Z,5.30
2023-01-29T07:01:09.117Z,5.33
2023-01-29T07:03:36.315Z,4.63
2023-01-29T07:06:04.592Z,5.57
2023-01-29T07:08:31.040Z,8.27
2023-01-29T07:11:01.677Z,5.80
2023-01-29T07:13:28.677Z,4.90
2023-01-29T07:16:02.289Z,4.60
2023-01-29T07:18:29.997Z,5.00
2023-01-29T07:20:57.157Z,4.57
2023-01-29T07:23:24.440Z,5.17
2023-01-29T07:25:51.232Z,5.47
2023-01-29T07:28:19.947Z,5.63
2023-01-29T07:30:46.853Z,6.40
2023-01-29T07:33:13.313Z,5.93
2023-01-29T07:35:42.683Z,4.73
2023-01-29T07:38:10.737Z,4.67
2023-01-29T07:40:38.447Z,4.70
2023-01-29T07:43:07.394Z,4.33
2023-01-29T07:45:36.483Z,5.20
2023-01-29T07:48:04.872Z,4.90
2023-01-29T07:50:33.961Z,4.57
2023-01-29T07:53:01.065Z,4.70
2023-01-29T07:55:27.698Z,4.70
2023-01-29T07:58:02.427Z,4.90
2023-01-29T08:00:31.510Z,5.23
2023-01-29T08:03:06.719Z,5.80
2023-01-29T08:05:33.695Z,6.00
2023-01-29T08:08:06.430Z,7.30
2023-01-29T08:10:36.246Z,8.90
2023-01-29T08:13:04.805Z,7.30
2023-01-29T08:15:32.409Z,7.40
2023-01-29T08:18:00.693Z,8.27
2023-01-29T08:20:27.352Z,6.83
2023-01-29T08:23:07.079Z,6.17
2023-01-29T08:25:35.474Z,6.20
2023-01-29T08:28:02.274Z,5.97
2023-01-29T08:30:32.357Z,5.77
2023-01-29T08:32:58.925Z,6.43
2023-01-29T08:35:26.307Z,6.53
2023-01-29T08:38:00.872Z,5.23
2023-01-29T08:40:32.973Z,5.77
2023-01-29T08:43:08.659Z,7.07
2023-01-29T08:45:40.135Z,7.13
2023-01-29T08:48:08.115Z,7.30
2023-01-29T08:50:35.399Z,7.47
2023-01-29T08:53:07.079Z,7.50
2023-01-29T08:55:36.758Z,7.90
2023-01-29T08:58:08.219Z,7.83
2023-01-29T09:00:35.267Z,8.10
2023-01-29T09:03:02.460Z,8.20
2023-01-29T09:05:29.475Z,8.90
2023-01-29T09:07:58.973Z,8.80
2023-01-29T09:10:26.130Z,10.00
2023-01-29T09:12:52.579Z,11.80
2023-01-29T09:15:19.600Z,14.10
2023-01-29T09:17:48.302Z,11.10
2023-01-29T09:20:15.883Z,11.63
2023-01-29T09:22:42.355Z,11.97
2023-01-29T09:25:10.003Z,11.07
2023-01-29T09:27:36.491Z,8.57
2023-01-29T09:30:05.025Z,7.93
2023-01-29T09:35:30.193Z,8.43
2023-01-29T09:37:56.659Z,8.50
2023-01-29T09:40:42.909Z,8.73
2023-01-29T09:43:54.615Z,8.57
2023-01-29T09:46:59.450Z,8.13
2023-01-29T09:49:41.495Z,8.97
2023-01-29T09:52:34.447Z,8.73
2023-01-29T09:55:26.649Z,8.57
2023-01-29T09:58:00.283Z,7.97
2023-01-29T10:01:03.236Z,9.00
2023-01-29T10:07:00.393Z,8.07
2023-01-29T10:13:45.378Z,8.10
2023-01-29T10:17:20.734Z,9.17
2023-01-29T10:22:12.110Z,7.77
2023-01-29T10:25:09.618Z,8.43
2023-01-29T10:27:40.953Z,8.27
2023-01-29T10:30:40.656Z,8.53
2023-01-29T10:33:49.344Z,8.53
2023-01-29T10:36:53.856Z,8.43
2023-01-29T10:39:24.028Z,8.17
2023-01-29T10:43:58.816Z,8.50
2023-01-29T10:50:46.500Z,8.33
2023-01-29T10:53:40.250Z,8.40
2023-01-29T10:58:09.150Z,8.50
2023-01-29T11:00:40.570Z,8.13
2023-01-29T11:03:28.423Z,8.07
2023-01-29T11:06:37.623Z,8.27
2023-01-29T11:10:17.355Z,8.07
2023-01-29T11:12:45.714Z,7.80
2023-01-29T11:15:31.525Z,8.00
2023-01-29T11:18:13.370Z,7.97
2023-01-29T11:20:45.741Z,8.57
2023-01-29T11:23:33.346Z,8.73
2023-01-29T11:26:00.608Z,8.70
2023-01-29T11:28:45.431Z,8.43
2023-01-29T11:31:26.188Z,7.83
2023-01-29T11:34:12.549Z,9.77
2023-01-29T11:36:39.733Z,8.37
2023-01-29T11:39:19.632Z,9.10
2023-01-29T11:42:02.978Z,8.43
2023-01-29T11:44:42.314Z,8.27
2023-01-29T11:47:24.802Z,8.13
2023-01-29T11:49:59.865Z,8.90
2023-01-29T11:52:38.354Z,8.27
2023-01-29T11:55:28.340Z,8.20
2023-01-29T11:58:16.489Z,8.13
2023-01-29T12:00:50.724Z,8.03
2023-01-29T12:03:47.689Z,8.50
2023-01-29T12:06:23.504Z,7.97
2023-01-29T12:09:00.702Z,8.87
2023-01-29T12:11:35.390Z,8.13
2023-01-29T12:14:05.507Z,9.13
2023-01-29T12:17:19.037Z,9.27
2023-01-29T12:20:12.007Z,8.10
2023-01-29T12:22:55.554Z,9.13
2023-01-29T12:29:46.124Z,9.97
2023-01-29T12:32:44.237Z,8.47
2023-01-29T12:35:23.110Z,9.23
2023-01-29T12:38:24.566Z,9.50
2023-01-29T12:41:21.803Z,9.63
2023-01-29T12:43:55.670Z,9.87
2023-01-29T12:46:28.800Z,9.80
2023-01-29T12:48:59.674Z,10.70
2023-01-29T12:51:37.155Z,9.27
2023-01-29T12:54:20.989Z,8.83
2023-01-29T12:56:52.968Z,7.73
2023-01-29T12:59:50.088Z,9.13
2023-01-29T13:02:48.583Z,8.00
2023-01-29T13:06:19.383Z,8.80
2023-01-29T13:08:53.089Z,8.20
2023-01-29T13:12:16.526Z,8.17
2023-01-29T13:14:57.920Z,8.20
2023-01-29T13:17:45.523Z,8.47
2023-01-29T13:20:29.992Z,8.63
2023-01-29T13:23:05.457Z,8.37
2023-01-29T13:25:31.937Z,8.37
2023-01-29T13:27:58.413Z,9.00
2023-01-29T13:30:36.731Z,8.87
2023-01-29T13:33:08.710Z,9.10
2023-01-29T13:35:45.337Z,9.23
2023-01-29T13:38:45.029Z,9.13
2023-01-29T13:41:13.000Z,8.40
2023-01-29T13:43:47.765Z,9.00
2023-01-29T13:46:20.516Z,9.47
2023-01-29T13:48:51.591Z,8.90
2023-01-29T13:51:26.672Z,9.37
2023-01-29T13:54:07.568Z,9.80
2023-01-29T13:56:58.524Z,9.30
2023-01-29T14:01:00.587Z,9.50
2023-01-29T14:04:04.162Z,9.00
2023-01-29T14:06:43.581Z,8.37
2023-01-29T14:10:31.173Z,8.57
2023-01-29T14:13:34.928Z,8.70
2023-01-29T14:16:49.248Z,8.67
2023-01-29T14:19:19.347Z,8.70
2023-01-29T14:21:50.520Z,9.70
2023-01-29T14:24:24.149Z,9.50
2023-01-29T14:26:57.063Z,9.40
2023-01-29T14:29:35.340Z,9.43
2023-01-29T14:32:39.252Z,9.50
2023-01-29T14:35:32.522Z,8.67
2023-01-29T14:38:05.729Z,9.10
2023-01-29T14:40:36.102Z,8.90
2023-01-29T14:43:19.956Z,8.70
2023-01-29T14:45:48.596Z,9.90
2023-01-29T14:48:47.942Z,9.87
2023-01-29T14:51:17.104Z,9.47
2023-01-29T14:57:03.555Z,9.23
2023-01-29T14:59:43.217Z,8.90
2023-01-29T15:02:21.559Z,9.70
2023-01-29T15:04:55.509Z,9.13
2023-01-29T15:07:43.458Z,9.67
2023-01-29T15:10:41.670Z,8.67
2023-01-29T15:13:46.879Z,8.63
2023-01-29T15:16:34.557Z,7.80
2023-01-29T15:19:35.203Z,8.97
2023-01-29T15:22:08.357Z,9.77
2023-01-29T15:24:36.935Z,9.83
2023-01-29T15:27:05.148Z,10.30
2023-01-29T15:29:31.748Z,9.60
2023-01-29T15:31:58.814Z,9.93
2023-01-29T15:34:25.669Z,10.83
2023-01-29T15:36:52.309Z,10.10
2023-01-29T15:39:24.653Z,10.10
2023-01-29T15:42:10.645Z,10.23
2023-01-29T15:44:44.359Z,9.80
2023-01-29T15:47:11.110Z,9.17
2023-01-29T15:49:40.102Z,10.77
2023-01-29T15:52:23.084Z,10.60
2023-01-29T15:54:50.852Z,9.90
2023-01-29T15:57:28.591Z,10.67
2023-01-29T15:59:58.116Z,10.47
2023-01-29T16:02:42.642Z,11.23
2023-01-29T16:05:21.307Z,10.40
2023-01-29T16:07:50.441Z,11.10
2023-01-29T16:10:24.078Z,10.27
2023-01-29T16:12:52.394Z,11.20
2023-01-29T16:15:33.338Z,11.17
2023-01-29T16:18:03.747Z,10.50
2023-01-29T16:20:49.589Z,10.87
2023-01-29T16:23:24.705Z,9.80
2023-01-29T16:25:51.745Z,9.83
2023-01-29T16:28:19.390Z,13.10
2023-01-29T16:30:46.010Z,11.97
2023-01-29T16:33:16.302Z,20.40
2023-01-29T16:35:52.281Z,10.27
2023-01-29T16:38:35.275Z,10.90
2023-01-29T16:41:37.753Z,10.87
2023-01-29T16:46:16.374Z,12.07
2023-01-29T16:48:42.883Z,11.50
2023-01-29T16:52:23.583Z,10.87
2023-01-29T16:54:50.297Z,12.13
2023-01-29T16:57:24.127Z,11.93
2023-01-29T16:59:57.125Z,10.70
2023-01-29T17:02:35.264Z,11.43
2023-01-29T17:05:20.487Z,10.17
2023-01-29T17:07:47.201Z,11.60
2023-01-29T17:10:19.687Z,9.83
2023-01-29T17:13:46.627Z,10.93
2023-01-29T17:16:33.562Z,11.60
2023-01-29T17:19:01.066Z,12.17
2023-01-29T17:21:29.904Z,10.70
2023-01-29T17:23:56.377Z,10.83
2023-01-29T17:26:24.015Z,9.60
2023-01-29T17:28:53.095Z,10.43
2023-01-29T17:31:19.665Z,9.73
2023-01-29T17:33:47.526Z,9.97
2023-01-29T17:36:17.004Z,10.67
2023-01-29T17:38:44.373Z,10.37
2023-01-29T17:41:29.754Z,11.30
2023-01-29T17:43:56.212Z,9.67
2023-01-29T17:46:22.703Z,10.50
2023-01-29T17:48:49.431Z,11.50
2023-01-29T17:51:18.034Z,9.90
2023-01-29T17:53:46.652Z,11.00
2023-01-29T17:56:26.899Z,10.57
2023-01-29T17:58:53.692Z,9.10
2023-01-29T18:01:20.226Z,9.10
2023-01-29T18:03:46.730Z,10.53
2023-01-29T18:06:29.202Z,9.83
2023-01-29T18:08:56.207Z,9.93
2023-01-29T18:11:22.807Z,9.80
2023-01-29T18:13:49.254Z,10.40
2023-01-29T18:16:17.449Z,9.90
2023-01-29T18:18:43.948Z,10.20
2023-01-29T18:21:10.421Z,9.63
2023-01-29T18:23:36.867Z,10.13
2023-01-29T18:26:03.407Z,9.50
2023-01-29T18:28:30.704Z,10.73
2023-01-29T18:30:57.210Z,10.93
2023-01-29T18:33:25.112Z,9.30
2023-01-29T18:35:54.187Z,10.53
2023-01-29T18:38:20.995Z,9.00
2023-01-29T18:40:47.587Z,7.93
2023-01-29T18:43:14.875Z,10.67
2023-01-29T18:45:41.643Z,10.17
2023-01-29T18:48:08.383Z,10.00
2023-01-29T18:50:35.781Z,9.57
2023-01-29T18:53:03.532Z,9.93
2023-01-29T18:55:30.056Z,9.83
2023-01-29T18:58:26.248Z,10.10
2023-01-29T19:01:00.294Z,9.00
2023-01-29T19:03:26.776Z,8.97
2023-01-29T19:05:53.270Z,9.27
2023-01-29T19:08:19.742Z,9.60
2023-01-29T19:10:46.199Z,9.70
2023-01-29T19:13:12.671Z,9.83
2023-01-29T19:15:42.485Z,10.03
2023-01-29T19:18:08.959Z,9.83
2023-01-29T19:20:38.576Z,10.90
2023-01-29T19:23:05.044Z,10.77
2023-01-29T19:25:31.514Z,10.93
2023-01-29T19:27:57.996Z,10.77
2023-01-29T19:30:24.462Z,11.50
2023-01-29T19:32:50.956Z,10.67
2023-01-29T19:35:17.803Z,8.97
2023-01-29T19:37:44.657Z,11.13
2023-01-29T19:40:11.402Z,9.60
2023-01-29T19:42:37.911Z,9.50
2023-01-29T19:45:05.479Z,10.23
2023-01-29T19:47:32.981Z,10.07
2023-01-29T19:49:59.443Z,9.47
2023-01-29T19:52:51.143Z,10.67
2023-01-29T19:55:20.561Z,9.80
2023-01-29T19:57:47.661Z,10.37
2023-01-29T20:00:16.595Z,10.87
2023-01-29T20:02:43.077Z,10.60
2023-01-29T20:05:11.986Z,10.73
2023-01-29T20:07:41.682Z,10.83
2023-01-29T20:10:16.255Z,10.90
2023-01-29T20:12:45.277Z,9.67
2023-01-29T20:15:15.243Z,10.87
2023-01-29T20:17:42.315Z,10.60
2023-01-29T20:20:10.150Z,10.40
2023-01-29T20:22:36.750Z,10.07
2023-01-29T20:25:03.539Z,11.50
2023-01-29T20:27:30.021Z,10.87
2023-01-29T20:29:56.736Z,9.90
2023-01-29T20:32:23.203Z,10.30
2023-01-29T20:34:51.340Z,12.60
2023-01-29T20:37:18.655Z,12.27
2023-01-29T20:39:45.181Z,13.83
2023-01-29T20:42:11.633Z,14.63
2023-01-29T20:44:38.080Z,10.30
2023-01-29T20:47:04.631Z,10.87
2023-01-29T20:49:31.637Z,10.93
2023-01-29T20:51:58.142Z,9.90
2023-01-29T20:54:24.635Z,10.93
2023-01-29T20:56:51.247Z,10.70
2023-01-29T20:59:18.044Z,11.00
2023-01-29T21:01:45.447Z,11.00
2023-01-29T21:04:11.950Z,11.63
2023-01-29T21:06:38.416Z,11.90
2023-01-29T21:09:04.906Z,11.90
2023-01-29T21:11:32.745Z,12.20
2023-01-29T21:14:01.023Z,11.63
2023-01-29T21:16:27.547Z,11.90
2023-01-29T21:18:58.294Z,11.33
2023-01-29T21:21:25.924Z,11.50
2023-01-29T21:23:52.510Z,10.53
2023-01-29T21:26:19.009Z,9.93
2023-01-29T21:28:46.065Z,11.93
2023-01-29T21:31:14.344Z,13.00
2023-01-29T21:33:40.926Z,10.10
2023-01-29T21:36:09.257Z,10.73
2023-01-29T21:38:36.597Z,10.40
2023-01-29T21:41:07.984Z,9.70
2023-01-29T21:43:35.061Z,9.77
2023-01-29T21:46:10.484Z,9.83
2023-01-29T21:48:38.591Z,10.10
2023-01-29T21:51:05.932Z,9.33
2023-01-29T21:53:32.433Z,10.03
2023-01-29T21:56:03.615Z,10.40
2023-01-29T21:58:30.233Z,10.13
2023-01-29T22:00:57.515Z,9.57
2023-01-29T22:03:47.086Z,9.40
2023-01-29T22:06:14.677Z,9.37
2023-01-29T22:08:41.152Z,9.07
2023-01-29T22:11:08.217Z,9.20
2023-01-29T22:13:35.100Z,11.30
2023-01-29T22:16:01.576Z,10.87
2023-01-29T22:18:28.037Z,11.80
2023-01-29T22:20:56.735Z,11.77
2023-01-29T22:23:24.108Z,11.67
2023-01-29T22:25:50.580Z,11.97
2023-01-29T22:28:17.990Z,11.00
2023-01-29T22:30:45.120Z,10.17
2023-01-29T22:33:11.903Z,10.07
2023-01-29T22:35:38.385Z,9.83
2023-01-29T22:38:05.047Z,11.20
2023-01-29T22:40:31.543Z,10.60
2023-01-29T22:42:58.021Z,10.80
2023-01-29T22:45:24.472Z,11.07
2023-01-29T22:47:50.954Z,10.77
2023-01-29T22:50:17.789Z,11.50
2023-01-29T22:52:53.004Z,10.00
2023-01-29T22:55:19.476Z,10.37
2023-01-29T22:57:49.501Z,11.87
2023-01-29T23:00:17.701Z,11.27
2023-01-29T23:02:47.173Z,11.93
2023-01-29T23:05:13.840Z,10.60
2023-01-29T23:07:40.408Z,10.43
2023-01-29T23:10:09.451Z,10.87
2023-01-29T23:12:35.893Z,10.83
2023-01-29T23:15:02.476Z,11.80
2023-01-29T23:17:28.941Z,11.87
2023-01-29T23:19:55.426Z,11.33
2023-01-29T23:22:21.912Z,11.37
2023-01-29T23:24:51.279Z,11.00
2023-01-29T23:27:17.758Z,10.43
2023-01-29T23:29:46.847Z,10.97
2023-01-29T23:32:22.572Z,9.43
2023-01-29T23:34:49.058Z,9.47
2023-01-29T23:37:15.669Z,9.27
2023-01-29T23:39:42.127Z,8.37
2023-01-29T23:42:08.607Z,9.50
2023-01-29T23:44:35.104Z,9.27
2023-01-29T23:47:01.581Z,9.90
2023-01-29T23:49:28.040Z,9.13
2023-01-29T23:51:54.530Z,8.47
2023-01-29T23:54:21.005Z,9.83
2023-01-29T23:56:47.513Z,9.80
2023-01-29T23:59:14.399Z,9.53
